sensor_id;sensor_type;location;lat;lon;timestamp;pressure;altitude;pressure_sealevel;temperature;humidity
9421;BME280;4749;51.398;5.466;2023-02-15T00:00:09;102723.31;;;3.33;100.00
9421;BME280;4749;51.398;5.466;2023-02-15T00:02:39;102721.44;;;3.31;100.00
9421;BME280;4749;51.398;5.466;2023-02-15T00:05:07;102718.75;;;3.29;100.00
9421;BME280;4749;51.398;5.466;2023-02-15T00:07:35;102715.13;;;3.27;100.00
9421;BME280;4749;51.398;5.466;2023-02-15T00:10:04;102721.13;;;3.26;100.00
9421;BME280;4749;51.398;5.466;2023-02-15T00:12:31;102721.84;;;3.24;100.00
9421;BME280;4749;51.398;5.466;2023-02-15T00:14:58;102719.25;;;3.24;100.00
9421;BME280;4749;51.398;5.466;2023-02-15T00:17:29;102714.78;;;3.21;100.00
9421;BME280;4749;51.398;5.466;2023-02-15T00:19:56;102713.56;;;3.16;100.00
9421;BME280;4749;51.398;5.466;2023-02-15T00:22:23;102713.56;;;3.16;100.00
9421;BME280;4749;51.398;5.466;2023-02-15T00:24:50;102701.28;;;3.14;100.00
9421;BME280;4749;51.398;5.466;2023-02-15T00:27:17;102711.59;;;3.12;100.00
9421;BME280;4749;51.398;5.466;2023-02-15T00:29:46;102710.59;;;3.10;100.00
9421;BME280;4749;51.398;5.466;2023-02-15T00:32:13;102705.28;;;3.08;100.00
9421;BME280;4749;51.398;5.466;2023-02-15T00:34:41;102701.72;;;3.06;100.00
9421;BME280;4749;51.398;5.466;2023-02-15T00:37:08;102702.50;;;3.05;100.00
9421;BME280;4749;51.398;5.466;2023-02-15T00:39:35;102703.41;;;3.06;100.00
9421;BME280;4749;51.398;5.466;2023-02-15T00:42:02;102702.31;;;3.02;100.00
9421;BME280;4749;51.398;5.466;2023-02-15T00:44:29;102703.09;;;3.01;100.00
9421;BME280;4749;51.398;5.466;2023-02-15T00:46:56;102700.31;;;2.98;100.00
9421;BME280;4749;51.398;5.466;2023-02-15T00:49:24;102701.13;;;2.97;100.00
9421;BME280;4749;51.398;5.466;2023-02-15T00:51:51;102695.84;;;2.96;100.00
9421;BME280;4749;51.398;5.466;2023-02-15T00:54:18;102686.94;;;2.92;100.00
9421;BME280;4749;51.398;5.466;2023-02-15T00:56:46;102678.97;;;2.89;100.00
9421;BME280;4749;51.398;5.466;2023-02-15T00:59:13;102682.47;;;2.90;100.00
9421;BME280;4749;51.398;5.466;2023-02-15T01:01:40;102684.97;;;2.88;100.00
9421;BME280;4749;51.398;5.466;2023-02-15T01:04:07;102676.06;;;2.85;100.00
9421;BME280;4749;51.398;5.466;2023-02-15T01:06:34;102679.38;;;2.82;100.00
9421;BME280;4749;51.398;5.466;2023-02-15T01:09:02;102673.19;;;2.80;100.00
9421;BME280;4749;51.398;5.466;2023-02-15T01:11:29;102669.59;;;2.78;100.00
9421;BME280;4749;51.398;5.466;2023-02-15T01:13:58;102666.00;;;2.76;100.00
9421;BME280;4749;51.398;5.466;2023-02-15T01:16:28;102666.72;;;2.73;100.00
9421;BME280;4749;51.398;5.466;2023-02-15T01:18:56;102666.63;;;2.72;100.00
9421;BME280;4749;51.398;5.466;2023-02-15T01:21:25;102657.94;;;2.71;100.00
9421;BME280;4749;51.398;5.466;2023-02-15T01:23:53;102657.84;;;2.70;100.00
9421;BME280;4749;51.398;5.466;2023-02-15T01:26:20;102658.72;;;2.70;100.00
9421;BME280;4749;51.398;5.466;2023-02-15T01:28:47;102648.22;;;2.69;100.00
9421;BME280;4749;51.398;5.466;2023-02-15T01:31:17;102644.72;;;2.68;100.00
9421;BME280;4749;51.398;5.466;2023-02-15T01:33:46;102649.03;;;2.68;100.00
9421;BME280;4749;51.398;5.466;2023-02-15T01:36:14;102651.63;;;2.68;100.00
9421;BME280;4749;51.398;5.466;2023-02-15T01:38:41;102646.25;;;2.65;100.00
9421;BME280;4749;51.398;5.466;2023-02-15T01:41:09;102647.94;;;2.64;100.00
9421;BME280;4749;51.398;5.466;2023-02-15T01:44:00;102644.34;;;2.62;100.00
9421;BME280;4749;51.398;5.466;2023-02-15T01:46:38;102641.69;;;2.61;100.00
9421;BME280;4749;51.398;5.466;2023-02-15T01:49:16;102640.66;;;2.59;100.00
9421;BME280;4749;51.398;5.466;2023-02-15T01:51:47;102639.75;;;2.58;100.00
9421;BME280;4749;51.398;5.466;2023-02-15T01:54:23;102643.16;;;2.57;100.00
9421;BME280;4749;51.398;5.466;2023-02-15T01:56:58;102634.38;;;2.55;100.00
9421;BME280;4749;51.398;5.466;2023-02-15T01:59:27;102636.88;;;2.53;100.00
9421;BME280;4749;51.398;5.466;2023-02-15T02:01:59;102628.88;;;2.50;100.00
9421;BME280;4749;51.398;5.466;2023-02-15T02:04:40;102625.38;;;2.50;100.00
9421;BME280;4749;51.398;5.466;2023-02-15T02:07:08;102628.59;;;2.46;100.00
9421;BME280;4749;51.398;5.466;2023-02-15T02:09:37;102632.81;;;2.44;100.00
9421;BME280;4749;51.398;5.466;2023-02-15T02:12:05;102629.28;;;2.43;100.00
9421;BME280;4749;51.398;5.466;2023-02-15T02:14:32;102623.81;;;2.39;100.00
9421;BME280;4749;51.398;5.466;2023-02-15T02:20:38;102619.34;;;2.36;100.00
9421;BME280;4749;51.398;5.466;2023-02-15T02:35:10;102597.97;;;2.27;100.00
9421;BME280;4749;51.398;5.466;2023-02-15T02:40:26;102590.88;;;2.24;100.00
9421;BME280;4749;51.398;5.466;2023-02-15T02:46:16;102588.19;;;2.23;100.00
9421;BME280;4749;51.398;5.466;2023-02-15T02:48:48;102583.72;;;2.20;100.00
9421;BME280;4749;51.398;5.466;2023-02-15T02:51:16;102588.00;;;2.20;100.00
9421;BME280;4749;51.398;5.466;2023-02-15T02:53:55;102591.28;;;2.17;100.00
9421;BME280;4749;51.398;5.466;2023-02-15T02:59:09;102589.41;;;2.15;100.00
9421;BME280;4749;51.398;5.466;2023-02-15T03:01:56;102585.91;;;2.14;100.00
9421;BME280;4749;51.398;5.466;2023-02-15T03:04:33;102591.09;;;2.14;100.00
9421;BME280;4749;51.398;5.466;2023-02-15T03:07:07;102582.31;;;2.12;100.00
9421;BME280;4749;51.398;5.466;2023-02-15T03:09:39;102576.13;;;2.10;100.00
9421;BME280;4749;51.398;5.466;2023-02-15T03:12:22;102576.91;;;2.09;100.00
9421;BME280;4749;51.398;5.466;2023-02-15T03:15:03;102578.59;;;2.09;100.00
9421;BME280;4749;51.398;5.466;2023-02-15T03:17:39;102569.84;;;2.07;100.00
9421;BME280;4749;51.398;5.466;2023-02-15T03:20:14;102574.13;;;2.06;100.00
9421;BME280;4749;51.398;5.466;2023-02-15T03:22:58;102564.47;;;2.04;100.00
9421;BME280;4749;51.398;5.466;2023-02-15T03:25:40;102565.13;;;2.01;100.00
9421;BME280;4749;51.398;5.466;2023-02-15T03:28:28;102565.94;;;2.00;100.00
9421;BME280;4749;51.398;5.466;2023-02-15T03:31:01;102555.38;;;1.97;100.00
9421;BME280;4749;51.398;5.466;2023-02-15T03:33:30;102554.56;;;1.98;100.00
9421;BME280;4749;51.398;5.466;2023-02-15T03:36:08;102564.06;;;1.97;100.00
9421;BME280;4749;51.398;5.466;2023-02-15T03:38:48;102556.19;;;1.96;100.00
9421;BME280;4749;51.398;5.466;2023-02-15T03:41:18;102551.88;;;1.96;100.00
9421;BME280;4749;51.398;5.466;2023-02-15T03:43:51;102545.81;;;1.96;100.00
9421;BME280;4749;51.398;5.466;2023-02-15T03:46:51;102545.81;;;1.96;100.00
9421;BME280;4749;51.398;5.466;2023-02-15T03:49:39;102549.28;;;1.96;100.00
9421;BME280;4749;51.398;5.466;2023-02-15T03:52:10;102543.41;;;1.99;100.00
9421;BME280;4749;51.398;5.466;2023-02-15T03:54:38;102539.09;;;2.00;100.00
9421;BME280;4749;51.398;5.466;2023-02-15T03:57:27;102537.50;;;2.02;100.00
9421;BME280;4749;51.398;5.466;2023-02-15T04:00:24;102542.00;;;2.04;100.00
9421;BME280;4749;51.398;5.466;2023-02-15T04:03:44;102541.19;;;2.05;100.00
9421;BME280;4749;51.398;5.466;2023-02-15T04:06:13;102537.72;;;2.05;100.00
9421;BME280;4749;51.398;5.466;2023-02-15T04:08:40;102547.19;;;2.04;100.00
9421;BME280;4749;51.398;5.466;2023-02-15T04:11:26;102543.88;;;2.07;100.00
9421;BME280;4749;51.398;5.466;2023-02-15T04:13:53;102543.00;;;2.06;100.00
9421;BME280;4749;51.398;5.466;2023-02-15T04:16:24;102548.19;;;2.06;100.00
9421;BME280;4749;51.398;5.466;2023-02-15T04:18:51;102549.88;;;2.06;100.00
9421;BME280;4749;51.398;5.466;2023-02-15T04:21:37;102540.31;;;2.05;100.00
9421;BME280;4749;51.398;5.466;2023-02-15T04:24:23;102539.19;;;2.01;100.00
9421;BME280;4749;51.398;5.466;2023-02-15T04:27:09;102547.88;;;2.02;100.00
9421;BME280;4749;51.398;5.466;2023-02-15T04:29:36;102545.00;;;1.97;100.00
9421;BME280;4749;51.398;5.466;2023-02-15T04:32:03;102545.81;;;1.96;100.00
9421;BME280;4749;51.398;5.466;2023-02-15T04:34:31;102544.81;;;1.94;100.00
9421;BME280;4749;51.398;5.466;2023-02-15T04:36:58;102548.97;;;1.92;100.00
9421;BME280;4749;51.398;5.466;2023-02-15T04:39:25;102551.69;;;1.93;100.00
9421;BME280;4749;51.398;5.466;2023-02-15T04:41:52;102539.41;;;1.91;100.00
9421;BME280;4749;51.398;5.466;2023-02-15T04:44:19;102542.81;;;1.90;100.00
9421;BME280;4749;51.398;5.466;2023-02-15T04:46:46;102545.41;;;1.90;100.00
9421;BME280;4749;51.398;5.466;2023-02-15T04:49:14;102534.84;;;1.87;100.00
9421;BME280;4749;51.398;5.466;2023-02-15T04:51:41;102527.84;;;1.86;100.00
9421;BME280;4749;51.398;5.466;2023-02-15T04:54:08;102530.22;;;1.83;100.00
9421;BME280;4749;51.398;5.466;2023-02-15T04:56:36;102529.34;;;1.82;100.00
9421;BME280;4749;51.398;5.466;2023-02-15T04:59:04;102522.16;;;1.78;100.00
9421;BME280;4749;51.398;5.466;2023-02-15T05:01:32;102518.69;;;1.78;100.00
9421;BME280;4749;51.398;5.466;2023-02-15T05:03:59;102521.16;;;1.76;100.00
9421;BME280;4749;51.398;5.466;2023-02-15T05:06:26;102521.94;;;1.75;100.00
9421;BME280;4749;51.398;5.466;2023-02-15T05:08:53;102516.66;;;1.74;100.00
9421;BME280;4749;51.398;5.466;2023-02-15T05:11:21;102518.38;;;1.73;100.00
9421;BME280;4749;51.398;5.466;2023-02-15T05:13:48;102520.06;;;1.73;100.00
9421;BME280;4749;51.398;5.466;2023-02-15T05:16:15;102518.38;;;1.73;100.00
9421;BME280;4749;51.398;5.466;2023-02-15T05:18:42;102515.59;;;1.70;100.00
9421;BME280;4749;51.398;5.466;2023-02-15T05:21:10;102512.09;;;1.69;100.00
9421;BME280;4749;51.398;5.466;2023-02-15T05:23:37;102506.78;;;1.68;100.00
9421;BME280;4749;51.398;5.466;2023-02-15T05:26:04;102514.56;;;1.68;100.00
9421;BME280;4749;51.398;5.466;2023-02-15T05:28:50;102509.38;;;1.68;100.00
9421;BME280;4749;51.398;5.466;2023-02-15T05:31:19;102507.59;;;1.67;100.00
9421;BME280;4749;51.398;5.466;2023-02-15T05:33:47;102506.69;;;1.66;100.00
9421;BME280;4749;51.398;5.466;2023-02-15T05:36:14;102502.31;;;1.65;100.00
9421;BME280;4749;51.398;5.466;2023-02-15T05:38:41;102505.00;;;1.67;100.00
9421;BME280;4749;51.398;5.466;2023-02-15T05:41:10;102503.31;;;1.67;100.00
9421;BME280;4749;51.398;5.466;2023-02-15T05:43:38;102500.59;;;1.66;100.00
9421;BME280;4749;51.398;5.466;2023-02-15T05:46:06;102501.50;;;1.66;100.00
9421;BME280;4749;51.398;5.466;2023-02-15T05:48:34;102495.34;;;1.64;100.00
9421;BME280;4749;51.398;5.466;2023-02-15T05:51:10;102493.72;;;1.66;100.00
9421;BME280;4749;51.398;5.466;2023-02-15T05:53:40;102502.31;;;1.65;100.00
9421;BME280;4749;51.398;5.466;2023-02-15T05:56:10;102495.94;;;1.60;100.00
9421;BME280;4749;51.398;5.466;2023-02-15T05:58:40;102498.53;;;1.60;100.00
9421;BME280;4749;51.398;5.466;2023-02-15T06:01:17;102503.72;;;1.60;100.00
9421;BME280;4749;51.398;5.466;2023-02-15T06:03:45;102505.28;;;1.58;100.00
9421;BME280;4749;51.398;5.466;2023-02-15T06:06:13;102504.31;;;1.56;100.00
9421;BME280;4749;51.398;5.466;2023-02-15T06:08:40;102511.91;;;1.53;100.00
9421;BME280;4749;51.398;5.466;2023-02-15T06:11:08;102517.88;;;1.52;100.00
9421;BME280;4749;51.398;5.466;2023-02-15T06:13:37;102515.28;;;1.52;100.00
9421;BME280;4749;51.398;5.466;2023-02-15T06:16:06;102515.97;;;1.50;100.00
9421;BME280;4749;51.398;5.466;2023-02-15T06:18:34;102513.28;;;1.48;100.00
9421;BME280;4749;51.398;5.466;2023-02-15T06:21:01;102512.28;;;1.46;100.00
9421;BME280;4749;51.398;5.466;2023-02-15T06:23:28;102518.19;;;1.44;100.00
9421;BME280;4749;51.398;5.466;2023-02-15T06:25:56;102515.69;;;1.45;100.00
9421;BME280;4749;51.398;5.466;2023-02-15T06:28:23;102506.91;;;1.43;100.00
9421;BME280;4749;51.398;5.466;2023-02-15T06:30:52;102503.38;;;1.42;100.00
9421;BME280;4749;51.398;5.466;2023-02-15T06:33:22;102509.50;;;1.43;100.00
9421;BME280;4749;51.398;5.466;2023-02-15T06:35:50;102507.59;;;1.40;100.00
9421;BME280;4749;51.398;5.466;2023-02-15T06:38:17;102508.38;;;1.39;100.00
9421;BME280;4749;51.398;5.466;2023-02-15T06:40:45;102510.28;;;1.42;100.00
9421;BME280;4749;51.398;5.466;2023-02-15T06:43:13;102505.97;;;1.42;100.00
9421;BME280;4749;51.398;5.466;2023-02-15T06:45:41;102505.88;;;1.41;100.00
9421;BME280;4749;51.398;5.466;2023-02-15T06:48:08;102505.97;;;1.42;100.00
9421;BME280;4749;51.398;5.466;2023-02-15T06:50:37;102500.03;;;1.44;100.00
9421;BME280;4749;51.398;5.466;2023-02-15T06:53:04;102501.03;;;1.46;100.00
9421;BME280;4749;51.398;5.466;2023-02-15T06:55:31;102504.50;;;1.46;100.00
9421;BME280;4749;51.398;5.466;2023-02-15T06:57:58;102499.41;;;1.48;100.00
9421;BME280;4749;51.398;5.466;2023-02-15T07:00:25;102493.34;;;1.47;100.00
9421;BME280;4749;51.398;5.466;2023-02-15T07:02:54;102488.34;;;1.50;100.00
9421;BME280;4749;51.398;5.466;2023-02-15T07:05:26;102484.06;;;1.51;100.00
9421;BME280;4749;51.398;5.466;2023-02-15T07:07:59;102487.84;;;1.56;100.00
9421;BME280;4749;51.398;5.466;2023-02-15T07:10:27;102482.75;;;1.57;100.00
9421;BME280;4749;51.398;5.466;2023-02-15T07:12:55;102490.06;;;1.63;100.00
9421;BME280;4749;51.398;5.466;2023-02-15T07:15:22;102482.28;;;1.63;100.00
9421;BME280;4749;51.398;5.466;2023-02-15T07:17:50;102485.38;;;1.71;100.00
9421;BME280;4749;51.398;5.466;2023-02-15T07:20:21;102487.34;;;1.75;100.00
9421;BME280;4749;51.398;5.466;2023-02-15T07:22:49;102486.84;;;1.80;100.00
9421;BME280;4749;51.398;5.466;2023-02-15T07:25:27;102480.16;;;1.84;100.00
9421;BME280;4749;51.398;5.466;2023-02-15T07:28:02;102491.81;;;1.90;100.00
9421;BME280;4749;51.398;5.466;2023-02-15T07:30:30;102478.34;;;1.96;100.00
9421;BME280;4749;51.398;5.466;2023-02-15T07:32:58;102480.41;;;2.02;100.00
9421;BME280;4749;51.398;5.466;2023-02-15T07:38:16;102477.00;;;2.16;100.00
9421;BME280;4749;51.398;5.466;2023-02-15T07:40:44;102474.72;;;2.20;100.00
9421;BME280;4749;51.398;5.466;2023-02-15T07:43:13;102476.00;;;2.27;100.00
9421;BME280;4749;51.398;5.466;2023-02-15T07:45:40;102480.56;;;2.31;100.00
9421;BME280;4749;51.398;5.466;2023-02-15T07:48:08;102477.53;;;2.38;100.00
9421;BME280;4749;51.398;5.466;2023-02-15T07:50:35;102472.03;;;2.47;100.00
9421;BME280;4749;51.398;5.466;2023-02-15T07:53:03;102460.19;;;2.52;100.00
9421;BME280;4749;51.398;5.466;2023-02-15T07:55:31;102464.06;;;2.59;100.00
9421;BME280;4749;51.398;5.466;2023-02-15T07:57:58;102457.56;;;2.65;100.00
9421;BME280;4749;51.398;5.466;2023-02-15T08:00:25;102459.97;;;2.77;100.00
9421;BME280;4749;51.398;5.466;2023-02-15T08:02:56;102469.03;;;2.83;100.00
9421;BME280;4749;51.398;5.466;2023-02-15T08:05:45;102462.53;;;3.05;100.00
9421;BME280;4749;51.398;5.466;2023-02-15T08:08:12;102467.63;;;3.18;100.00
9421;BME280;4749;51.398;5.466;2023-02-15T08:11:13;102467.09;;;3.24;100.00
9421;BME280;4749;51.398;5.466;2023-02-15T08:14:17;102469.41;;;3.34;100.00
9421;BME280;4749;51.398;5.466;2023-02-15T08:16:50;102463.84;;;3.43;100.00
9421;BME280;4749;51.398;5.466;2023-02-15T08:19:28;102463.56;;;3.53;100.00
9421;BME280;4749;51.398;5.466;2023-02-15T08:22:05;102459.00;;;3.63;100.00
9421;BME280;4749;51.398;5.466;2023-02-15T08:24:35;102455.91;;;3.71;100.00
9421;BME280;4749;51.398;5.466;2023-02-15T08:27:08;102459.13;;;3.81;100.00
9421;BME280;4749;51.398;5.466;2023-02-15T08:29:37;102451.09;;;3.93;100.00
9421;BME280;4749;51.398;5.466;2023-02-15T08:32:09;102455.41;;;4.09;100.00
9421;BME280;4749;51.398;5.466;2023-02-15T08:34:40;102452.59;;;4.20;100.00
9421;BME280;4749;51.398;5.466;2023-02-15T08:37:09;102452.69;;;4.38;100.00
9421;BME280;4749;51.398;5.466;2023-02-15T08:39:36;102453.41;;;4.52;100.00
9421;BME280;4749;51.398;5.466;2023-02-15T08:42:03;102448.03;;;4.65;100.00
9421;BME280;4749;51.398;5.466;2023-02-15T08:44:31;102454.88;;;4.79;100.00
9421;BME280;4749;51.398;5.466;2023-02-15T08:46:58;102455.56;;;4.93;100.00
9421;BME280;4749;51.398;5.466;2023-02-15T08:49:31;102446.75;;;5.07;100.00
9421;BME280;4749;51.398;5.466;2023-02-15T08:51:58;102448.09;;;5.17;100.00
9421;BME280;4749;51.398;5.466;2023-02-15T08:54:26;102445.13;;;5.27;100.00
9421;BME280;4749;51.398;5.466;2023-02-15T08:56:54;102447.22;;;5.34;100.00
9421;BME280;4749;51.398;5.466;2023-02-15T08:59:23;102451.91;;;5.42;100.00
9421;BME280;4749;51.398;5.466;2023-02-15T09:01:52;102449.69;;;5.49;100.00
9421;BME280;4749;51.398;5.466;2023-02-15T09:04:20;102457.13;;;5.59;100.00
9421;BME280;4749;51.398;5.466;2023-02-15T09:06:49;102443.63;;;5.68;100.00
9421;BME280;4749;51.398;5.466;2023-02-15T09:09:18;102441.47;;;5.77;100.00
9421;BME280;4749;51.398;5.466;2023-02-15T09:11:48;102435.84;;;5.87;100.00
9421;BME280;4749;51.398;5.466;2023-02-15T09:14:20;102433.69;;;5.97;100.00
9421;BME280;4749;51.398;5.466;2023-02-15T09:16:48;102436.66;;;6.04;100.00
9421;BME280;4749;51.398;5.466;2023-02-15T09:19:19;102430.91;;;6.11;100.00
9421;BME280;4749;51.398;5.466;2023-02-15T09:21:47;102429.47;;;6.18;100.00
9421;BME280;4749;51.398;5.466;2023-02-15T09:24:16;102421.94;;;6.24;100.00
9421;BME280;4749;51.398;5.466;2023-02-15T09:26:46;102429.28;;;6.33;100.00
9421;BME280;4749;51.398;5.466;2023-02-15T09:29:14;102421.69;;;6.39;100.00
9421;BME280;4749;51.398;5.466;2023-02-15T09:31:48;102417.66;;;6.45;100.00
9421;BME280;4749;51.398;5.466;2023-02-15T09:34:20;102423.28;;;6.55;100.00
9421;BME280;4749;51.398;5.466;2023-02-15T09:36:48;102416.81;;;6.66;100.00
9421;BME280;4749;51.398;5.466;2023-02-15T09:39:23;102417.34;;;6.78;100.00
9421;BME280;4749;51.398;5.466;2023-02-15T09:50:42;102427.38;;;7.30;100.00
9421;BME280;4749;51.398;5.466;2023-02-15T09:54:24;102419.22;;;7.43;100.00
9421;BME280;4749;51.398;5.466;2023-02-15T09:56:39;102421.41;;;7.55;100.00
9421;BME280;4749;51.398;5.466;2023-02-15T10:14:24;102422.84;;;8.14;100.00
9421;BME280;4749;51.398;5.466;2023-02-15T10:28:38;102434.03;;;8.56;100.00
9421;BME280;4749;51.398;5.466;2023-02-15T10:31:39;102430.94;;;8.66;100.00
9421;BME280;4749;51.398;5.466;2023-02-15T10:50:23;102416.19;;;9.48;100.00
9421;BME280;4749;51.398;5.466;2023-02-15T10:55:40;102412.84;;;9.80;100.00
9421;BME280;4749;51.398;5.466;2023-02-15T10:58:45;102404.63;;;9.98;100.00
9421;BME280;4749;51.398;5.466;2023-02-15T11:01:59;102403.50;;;10.19;100.00
9421;BME280;4749;51.398;5.466;2023-02-15T11:07:40;102398.25;;;10.50;100.00
9421;BME280;4749;51.398;5.466;2023-02-15T11:11:04;102397.13;;;10.40;100.00
9421;BME280;4749;51.398;5.466;2023-02-15T11:13:40;102393.41;;;10.64;100.00
9421;BME280;4749;51.398;5.466;2023-02-15T11:16:16;102393.91;;;10.84;100.00
9421;BME280;4749;51.398;5.466;2023-02-15T11:19:03;102390.78;;;10.98;100.00
9421;BME280;4749;51.398;5.466;2023-02-15T11:21:40;102384.88;;;11.07;100.00
9421;BME280;4749;51.398;5.466;2023-02-15T11:24:14;102383.41;;;11.18;100.00
9421;BME280;4749;51.398;5.466;2023-02-15T11:29:33;102386.63;;;11.43;100.00
9421;BME280;4749;51.398;5.466;2023-02-15T11:35:17;102375.78;;;11.68;100.00
9421;BME280;4749;51.398;5.466;2023-02-15T11:38:18;102368.03;;;11.74;100.00
9421;BME280;4749;51.398;5.466;2023-02-15T11:40:56;102370.03;;;11.84;100.00
9421;BME280;4749;51.398;5.466;2023-02-15T11:43:41;102351.75;;;11.92;100.00
9421;BME280;4749;51.398;5.466;2023-02-15T11:46:12;102365.09;;;12.00;100.00
9421;BME280;4749;51.398;5.466;2023-02-15T11:48:40;102353.88;;;12.10;100.00
9421;BME280;4749;51.398;5.466;2023-02-15T11:51:21;102355.88;;;12.20;100.00
9421;BME280;4749;51.398;5.466;2023-02-15T11:53:50;102351.56;;;12.27;100.00
9421;BME280;4749;51.398;5.466;2023-02-15T11:56:27;102347.41;;;12.36;100.00
9421;BME280;4749;51.398;5.466;2023-02-15T11:59:04;102348.44;;;12.45;100.00
9421;BME280;4749;51.398;5.466;2023-02-15T12:01:40;102338.81;;;12.48;100.00
9421;BME280;4749;51.398;5.466;2023-02-15T12:04:34;102345.13;;;12.56;100.00
9421;BME280;4749;51.398;5.466;2023-02-15T12:07:15;102344.38;;;12.65;100.00
9421;BME280;4749;51.398;5.466;2023-02-15T12:10:04;102339.22;;;12.71;100.00
9421;BME280;4749;51.398;5.466;2023-02-15T12:12:35;102338.44;;;12.77;100.00
9421;BME280;4749;51.398;5.466;2023-02-15T12:15:08;102338.94;;;12.54;100.00
9421;BME280;4749;51.398;5.466;2023-02-15T12:17:57;102332.44;;;12.37;100.00
9421;BME280;4749;51.398;5.466;2023-02-15T12:20:42;102342.59;;;12.62;100.00
9421;BME280;4749;51.398;5.466;2023-02-15T12:23:15;102332.06;;;12.64;100.00
9421;BME280;4749;51.398;5.466;2023-02-15T12:25:53;102325.06;;;12.67;100.00
9421;BME280;4749;51.398;5.466;2023-02-15T12:28:41;102328.69;;;12.73;100.00
9421;BME280;4749;51.398;5.466;2023-02-15T12:33:56;102328.22;;;12.96;100.00
9421;BME280;4749;51.398;5.466;2023-02-15T12:36:30;102319.59;;;13.08;100.00
9421;BME280;4749;51.398;5.466;2023-02-15T12:41:58;102314.69;;;13.30;100.00
9421;BME280;4749;51.398;5.466;2023-02-15T12:44:32;102303.31;;;13.37;100.00
9421;BME280;4749;51.398;5.466;2023-02-15T12:49:45;102310.59;;;13.51;100.00
9421;BME280;4749;51.398;5.466;2023-02-15T12:52:30;102302.75;;;13.59;100.00
9421;BME280;4749;51.398;5.466;2023-02-15T12:55:22;102308.16;;;13.68;100.00
9421;BME280;4749;51.398;5.466;2023-02-15T12:58:15;102302.06;;;13.71;100.00
9421;BME280;4749;51.398;5.466;2023-02-15T13:00:45;102299.44;;;13.72;100.00
9421;BME280;4749;51.398;5.466;2023-02-15T13:03:21;102301.31;;;13.83;100.00
9421;BME280;4749;51.398;5.466;2023-02-15T13:05:55;102303.16;;;13.88;100.00
9421;BME280;4749;51.398;5.466;2023-02-15T13:08:34;102302.41;;;14.01;100.00
9421;BME280;4749;51.398;5.466;2023-02-15T13:11:10;102295.53;;;14.14;100.00
9421;BME280;4749;51.398;5.466;2023-02-15T13:13:56;102295.63;;;14.23;100.00
9421;BME280;4749;51.398;5.466;2023-02-15T13:16:37;102293.88;;;14.25;100.00
9421;BME280;4749;51.398;5.466;2023-02-15T13:22:06;102290.34;;;14.26;100.00
9421;BME280;4749;51.398;5.466;2023-02-15T13:24:58;102284.97;;;14.20;100.00
9421;BME280;4749;51.398;5.466;2023-02-15T13:27:38;102279.69;;;14.17;100.00
9421;BME280;4749;51.398;5.466;2023-02-15T13:30:32;102277.91;;;14.18;100.00
9421;BME280;4749;51.398;5.466;2023-02-15T13:33:27;102277.94;;;14.21;100.00
9421;BME280;4749;51.398;5.466;2023-02-15T13:36:36;102271.75;;;14.20;100.00
9421;BME280;4749;51.398;5.466;2023-02-15T13:42:18;102265.78;;;14.38;100.00
9421;BME280;4749;51.398;5.466;2023-02-15T13:51:45;102260.78;;;14.69;100.00
9421;BME280;4749;51.398;5.466;2023-02-15T14:03:27;102259.97;;;14.79;100.00
9421;BME280;4749;51.398;5.466;2023-02-15T14:12:39;102252.91;;;14.73;100.00
9421;BME280;4749;51.398;5.466;2023-02-15T14:20:44;102273.97;;;14.62;100.00
9421;BME280;4749;51.398;5.466;2023-02-15T14:31:53;102279.16;;;14.50;100.00
9421;BME280;4749;51.398;5.466;2023-02-15T14:37:04;102280.03;;;14.48;100.00
9421;BME280;4749;51.398;5.466;2023-02-15T14:40:01;102287.97;;;14.51;100.00
9421;BME280;4749;51.398;5.466;2023-02-15T14:46:36;102283.59;;;14.53;100.00
9421;BME280;4749;51.398;5.466;2023-02-15T14:49:24;102286.22;;;14.48;100.00
9421;BME280;4749;51.398;5.466;2023-02-15T14:51:56;102280.88;;;14.45;100.00
9421;BME280;4749;51.398;5.466;2023-02-15T14:59:53;102278.97;;;14.36;100.00
9421;BME280;4749;51.398;5.466;2023-02-15T15:02:43;102282.50;;;14.34;100.00
9421;BME280;4749;51.398;5.466;2023-02-15T15:05:34;102285.13;;;14.29;100.00
9421;BME280;4749;51.398;5.466;2023-02-15T15:08:04;102265.66;;;14.24;100.00
9421;BME280;4749;51.398;5.466;2023-02-15T15:10:46;102281.47;;;14.20;100.00
9421;BME280;4749;51.398;5.466;2023-02-15T15:16:30;102275.19;;;14.08;100.00
9421;BME280;4749;51.398;5.466;2023-02-15T15:18:59;102277.75;;;14.04;100.00
9421;BME280;4749;51.398;5.466;2023-02-15T15:48:35;102263.38;;;13.15;100.00
9421;BME280;4749;51.398;5.466;2023-02-15T15:51:32;102258.81;;;13.04;100.00
9421;BME280;4749;51.398;5.466;2023-02-15T15:54:01;102251.66;;;12.96;100.00
9421;BME280;4749;51.398;5.466;2023-02-15T15:56:33;102257.69;;;12.88;100.00
9421;BME280;4749;51.398;5.466;2023-02-15T15:59:07;102247.00;;;12.80;100.00
9421;BME280;4749;51.398;5.466;2023-02-15T16:01:42;102245.13;;;12.73;100.00
9421;BME280;4749;51.398;5.466;2023-02-15T16:04:13;102243.25;;;12.66;100.00
9421;BME280;4749;51.398;5.466;2023-02-15T16:06:41;102245.75;;;12.58;100.00
9421;BME280;4749;51.398;5.466;2023-02-15T16:09:24;102250.94;;;12.52;100.00
9421;BME280;4749;51.398;5.466;2023-02-15T16:11:59;102242.91;;;12.45;100.00
9421;BME280;4749;51.398;5.466;2023-02-15T16:14:36;102245.38;;;12.35;100.00
9421;BME280;4749;51.398;5.466;2023-02-15T16:17:14;102240.81;;;12.27;100.00
9421;BME280;4749;51.398;5.466;2023-02-15T16:19:44;102245.94;;;12.18;100.00
9421;BME280;4749;51.398;5.466;2023-02-15T16:22:22;102247.50;;;12.08;100.00
9421;BME280;4749;51.398;5.466;2023-02-15T16:25:22;102239.41;;;11.97;100.00
9421;BME280;4749;51.398;5.466;2023-02-15T16:27:53;102240.09;;;11.87;100.00
9421;BME280;4749;51.398;5.466;2023-02-15T16:30:30;102240.72;;;11.77;100.00
9421;BME280;4749;51.398;5.466;2023-02-15T16:33:15;102233.50;;;11.67;100.00
9421;BME280;4749;51.398;5.466;2023-02-15T16:36:01;102238.53;;;11.56;100.00
9421;BME280;4749;51.398;5.466;2023-02-15T16:41:27;102237.25;;;11.36;100.00
9421;BME280;4749;51.398;5.466;2023-02-15T16:43:59;102237.81;;;11.22;100.00
9421;BME280;4749;51.398;5.466;2023-02-15T16:46:37;102238.53;;;11.15;100.00
9421;BME280;4749;51.398;5.466;2023-02-15T16:49:22;102231.91;;;10.93;100.00